CheckWX is a tool to help pilots better visualize weather data.  It is not intended as a substitute for an official pre-flight weather briefing.

08:38:17 UTC

KCOU TAF
Columbia Regional Airport
Columbia, Missouri, USA
KCOU 170520Z 1706/1806 VRB03KT P6SM SKC FM171500 19005KT P6SM FEW050 FM171800 20008KT P6SM VCTS SCT050CB FM180000 18006KT P6SM FEW250

Jul-17@
06:00 UTC

Jul-17 @ 06:00 UTC

Jul-17@
15:00 UTC

Jul-17 @ 15:00 UTC

KCOU 170520Z 1706/1806 VRB03KT P6SM SKC
Wind
  • Variable at 3 KTS
Cloud Levels
  • Clear skies

Jul-17@
15:00 UTC

Jul-17 @ 15:00 UTC

Jul-17@
18:00 UTC

Jul-17 @ 18:00 UTC

FM171500 19005KT P6SM FEW050

From

From Standard forecast or significant change

Wind
  • 190° at 5 KTS
Cloud Levels
  • Few at 5,000' AGL

Jul-17@
18:00 UTC

Jul-17 @ 18:00 UTC

Jul-18@
00:00 UTC

Jul-18 @ 00:00 UTC

FM171800 20008KT P6SM VCTS SCT050CB

From

From Standard forecast or significant change

Wind
  • 200° at 8 KTS
Conditions
Area Thunderstorm
Cloud Levels
  • Scattered at 5,000' AGL

Jul-18@
00:00 UTC

Jul-18 @ 00:00 UTC

Jul-18@
06:00 UTC

Jul-18 @ 06:00 UTC

FM180000 18006KT P6SM FEW250

From

From Standard forecast or significant change

Wind
  • 180° at 6 KTS
Cloud Levels
  • Few at 25,000' AGL